KLBO

Floyd W Jones Lebanon Airport

Lebanon, Missouri, USA
METAR KLBO 202355Z AUTO 26010KT 10SM SCT001 SCT028 SCT037 22/18 A2985 RMK AO2
Observed Flight Rules
Aug-20 @ 23:55 UTC (12 minutes ago) Visual Flight Rules
Wind Visibility Clouds
260° at 10 knots 10 miles
  • Scattered at 100' AGL
  • Scattered at 2,800' AGL
  • Scattered at 3,700' AGL
Temperatures Readings
Current 22°C / 72°F
Dewpoint 18°C / 64°F
Humidity 78%
Altimeter 29.85" Hg
Pressure 1011 hPa
Elevation 403
METAR KLBO 202355Z AUTO 26010KT 10SM SCT001 SCT028 SCT037 22/18 A2985 RMK AO2
Observed Flight Rules
Aug-20 @ 23:55 UTC
(12 minutes ago)
VFR
Wind Visibility
260° at 10 knots 10 miles
Clouds
  • Scattered at 100' AGL
  • Scattered at 2,800' AGL
  • Scattered at 3,700' AGL
Temperature Dewpoint
22°C / 72°F 18°C / 64°F
Humidity Altimeter Pressure
78% 29.85" Hg 1011 hPa